Time;durP1;ratioP1;P1;durP2;ratioP2;P2;SDS_P1;SDS_P2;PMS_P1;PMS_P2;Temp;Humidity;BMP_temperature;BMP_pressure;BME280_temperature;BME280_humidity;BME280_pressure;Samples;Min_cycle;Max_cycle;Signal;HPM_P1;HPM_P2
2022/11/28 00:01:11;;;;;;;9.95;9.65;;;0.40;99.90;;;;;;4233247;28;20090;-86
2022/11/28 00:03:31;;;;;;;12.02;11.63;;;0.50;99.90;;;;;;4218274;28;20043;-86
2022/11/28 00:05:52;;;;;;;11.90;11.27;;;0.50;99.90;;;;;;4230959;28;20103;-87
2022/11/28 00:08:11;;;;;;;12.93;12.15;;;0.50;99.90;;;;;;4217713;28;20480;-86
2022/11/28 00:10:32;;;;;;;12.98;12.30;;;0.50;99.90;;;;;;4230920;28;20055;-86
2022/11/28 00:12:52;;;;;;;10.07;9.57;;;0.40;99.90;;;;;;4227543;28;20112;-86
2022/11/28 00:15:12;;;;;;;11.90;11.20;;;0.40;99.90;;;;;;4229350;28;20089;-86
2022/11/28 00:17:32;;;;;;;12.18;11.32;;;0.40;99.90;;;;;;4232599;28;20230;-86
2022/11/28 00:19:51;;;;;;;9.15;8.75;;;0.40;99.90;;;;;;4230142;28;20247;-87
2022/11/28 00:22:12;;;;;;;9.18;8.70;;;0.50;99.90;;;;;;4230761;28;20361;-87
2022/11/28 00:24:31;;;;;;;9.85;9.45;;;0.40;99.90;;;;;;4221545;28;20083;-86
2022/11/28 00:26:51;;;;;;;9.15;8.75;;;0.30;99.90;;;;;;4232820;28;20089;-86
2022/11/28 00:29:10;;;;;;;10.13;9.80;;;0.30;99.90;;;;;;4231820;28;20070;-86
2022/11/28 00:31:34;;;;;;;10.23;9.93;;;0.30;99.90;;;;;;4231337;28;20051;-86
2022/11/28 00:33:54;;;;;;;11.00;10.38;;;0.30;99.90;;;;;;4218162;28;20095;-86
2022/11/28 00:36:14;;;;;;;15.52;13.02;;;0.20;99.90;;;;;;4232567;28;20089;-86
2022/11/28 00:38:34;;;;;;;18.05;16.33;;;0.20;99.90;;;;;;4232112;28;20112;-86
2022/11/28 00:40:58;;;;;;;28.50;23.15;;;0.10;99.90;;;;;;4231827;28;20088;-86
2022/11/28 00:43:18;;;;;;;26.13;21.77;;;0.00;99.90;;;;;;4231481;28;20043;-86
2022/11/28 00:45:38;;;;;;;19.95;17.75;;;-0.10;99.90;;;;;;4231599;28;20361;-86
2022/11/28 00:47:58;;;;;;;25.13;20.80;;;-0.20;99.90;;;;;;4231980;28;20067;-86
2022/11/28 00:50:18;;;;;;;19.80;18.02;;;-0.30;99.90;;;;;;4230614;28;20092;-86
2022/11/28 00:52:38;;;;;;;17.13;15.82;;;-0.20;99.90;;;;;;4218326;28;20066;-86
2022/11/28 00:54:57;;;;;;;13.07;12.55;;;-0.10;99.90;;;;;;4231471;28;20059;-86
2022/11/28 00:57:17;;;;;;;15.75;14.65;;;-0.10;99.90;;;;;;4218537;28;20086;-86
2022/11/28 00:59:36;;;;;;;14.73;13.57;;;-0.10;99.90;;;;;;4215961;28;20059;-86
2022/11/28 01:01:57;;;;;;;16.58;15.10;;;-0.10;99.90;;;;;;4230262;28;20050;-86
2022/11/28 01:04:17;;;;;;;19.33;17.40;;;-0.10;99.90;;;;;;4232543;28;20108;-86
2022/11/28 01:06:43;;;;;;;13.65;12.80;;;-0.20;99.90;;;;;;4232006;28;20238;-86
2022/11/28 01:09:06;;;;;;;14.25;13.35;;;-0.10;99.90;;;;;;4229858;28;20046;-86
2022/11/28 01:11:28;;;;;;;11.07;10.40;;;-0.20;99.90;;;;;;4215988;28;20055;-87
2022/11/28 01:13:48;;;;;;;10.80;9.98;;;-0.10;99.90;;;;;;4228275;28;20058;-86
2022/11/28 01:16:09;;;;;;;12.63;12.00;;;-0.10;99.90;;;;;;4232392;28;20293;-86
2022/11/28 01:18:29;;;;;;;10.88;10.30;;;-0.20;99.90;;;;;;4230742;28;20238;-86
2022/11/28 01:20:50;;;;;;;10.77;10.27;;;-0.30;99.90;;;;;;4216427;28;20078;-86
2022/11/28 01:23:10;;;;;;;12.07;11.40;;;-0.40;99.90;;;;;;4226608;28;20117;-86
2022/11/28 01:25:31;;;;;;;11.98;11.23;;;-0.40;99.90;;;;;;4229006;28;20065;-86
2022/11/28 01:27:50;;;;;;;11.95;11.18;;;-0.30;99.90;;;;;;4228197;28;20365;-86
2022/11/28 01:30:11;;;;;;;13.18;12.32;;;-0.10;99.90;;;;;;4227229;28;20079;-86
2022/11/28 01:32:30;;;;;;;15.98;13.45;;;0.00;99.90;;;;;;4228891;28;20043;-86
2022/11/28 01:34:50;;;;;;;12.70;12.18;;;0.00;99.90;;;;;;4231126;28;20050;-86
2022/11/28 01:37:10;;;;;;;11.75;11.25;;;0.00;99.90;;;;;;4216255;28;20043;-86
2022/11/28 01:39:30;;;;;;;11.32;11.00;;;0.00;99.90;;;;;;4233132;28;20105;-86
2022/11/28 01:41:49;;;;;;;10.77;10.27;;;0.00;99.90;;;;;;4232138;28;20047;-86
2022/11/28 01:44:12;;;;;;;10.00;9.77;;;-0.10;99.90;;;;;;4216749;28;20070;-87
2022/11/28 01:46:33;;;;;;;11.00;10.50;;;-0.20;99.90;;;;;;4230969;28;20081;-86
2022/11/28 01:48:56;;;;;;;11.80;11.18;;;0.00;99.90;;;;;;4229627;28;20369;-86
2022/11/28 01:51:16;;;;;;;9.02;8.82;;;0.10;99.90;;;;;;4230980;28;20078;-86
2022/11/28 01:53:41;;;;;;;9.73;9.45;;;0.10;99.90;;;;;;4226272;28;20046;-86
2022/11/28 01:56:07;;;;;;;12.65;11.77;;;0.10;99.90;;;;;;4216040;28;20040;-86
2022/11/28 01:58:29;;;;;;;13.23;12.30;;;0.00;99.90;;;;;;4219570;28;20047;-86
2022/11/28 02:00:49;;;;;;;12.93;12.10;;;0.00;99.90;;;;;;4216092;28;20050;-86
2022/11/28 02:03:14;;;;;;;11.77;11.02;;;-0.20;99.90;;;;;;4215975;28;20254;-86
2022/11/28 02:05:35;;;;;;;12.75;11.95;;;-0.20;99.90;;;;;;4215633;28;20370;-86
2022/11/28 02:07:54;;;;;;;16.08;14.77;;;-0.20;99.90;;;;;;4222396;28;20047;-86
2022/11/28 02:10:21;;;;;;;14.60;13.65;;;-0.30;99.90;;;;;;4217920;28;20115;-86
2022/11/28 02:13:15;;;;;;;14.20;13.40;;;-0.40;99.90;;;;;;4233293;28;20043;-86
2022/11/28 02:15:57;;;;;;;9.88;9.68;;;-0.30;99.90;;;;;;4223384;28;20050;-86
2022/11/28 02:18:55;;;;;;;10.30;9.90;;;-0.30;99.90;;;;;;4228957;28;20074;-87
2022/11/28 02:21:26;;;;;;;16.92;15.60;;;-0.30;99.90;;;;;;4231692;28;20108;-86
2022/11/28 02:24:04;;;;;;;17.27;15.98;;;-0.50;99.90;;;;;;4229988;28;20094;-86
2022/11/28 02:26:51;;;;;;;17.25;15.85;;;-0.60;99.90;;;;;;4231800;28;20250;-86
2022/11/28 02:29:19;;;;;;;15.82;14.60;;;-0.60;99.90;;;;;;4230505;28;20103;-86
2022/11/28 02:32:07;;;;;;;16.10;14.82;;;-0.70;99.90;;;;;;4228346;28;20397;-86
2022/11/28 02:34:50;;;;;;;17.30;15.60;;;-0.70;99.90;;;;;;4230739;28;20389;-87
2022/11/28 02:37:33;;;;;;;15.13;14.18;;;-0.80;99.90;;;;;;4228806;28;20053;-86
2022/11/28 02:39:59;;;;;;;15.65;14.77;;;-0.90;99.90;;;;;;4230566;28;20116;-86
2022/11/28 02:42:43;;;;;;;14.70;13.88;;;-0.90;99.90;;;;;;4229834;28;20338;-86
2022/11/28 02:45:08;;;;;;;14.90;14.13;;;-0.90;99.90;;;;;;4222031;28;20039;-86
2022/11/28 02:47:35;;;;;;;14.25;13.57;;;-0.90;99.90;;;;;;4214801;28;20043;-86
2022/11/28 02:50:21;;;;;;;13.85;12.85;;;-0.90;99.90;;;;;;4228406;28;20051;-86
2022/11/28 02:52:58;;;;;;;12.10;11.50;;;-0.80;99.90;;;;;;4229869;28;20043;-86
2022/11/28 02:55:19;;;;;;;13.27;12.77;;;-0.80;99.90;;;;;;4227103;28;20240;-86
2022/11/28 02:57:45;;;;;;;14.50;13.95;;;-0.80;99.90;;;;;;4229864;28;20377;-86
2022/11/28 03:00:27;;;;;;;11.60;11.25;;;-0.70;99.90;;;;;;4215144;28;20117;-86
2022/11/28 03:02:53;;;;;;;13.73;12.90;;;-0.70;99.90;;;;;;4227915;28;20046;-86
2022/11/28 03:05:27;;;;;;;13.85;12.88;;;-0.80;99.90;;;;;;4230031;28;20055;-86
2022/11/28 03:08:12;;;;;;;14.02;13.27;;;-0.80;99.90;;;;;;4208945;28;20164;-86
2022/11/28 03:10:42;;;;;;;15.23;14.52;;;-0.80;99.90;;;;;;4227160;28;20154;-86
2022/11/28 03:13:10;;;;;;;13.80;13.10;;;-0.70;99.90;;;;;;4233623;28;20043;-86
2022/11/28 03:15:59;;;;;;;13.48;12.70;;;-0.70;99.90;;;;;;4229643;28;20072;-86
2022/11/28 03:18:27;;;;;;;13.32;12.75;;;-0.70;99.90;;;;;;4233038;28;20071;-86
2022/11/28 03:20:47;;;;;;;15.93;14.80;;;-0.80;99.90;;;;;;4231666;28;20063;-86
2022/11/28 03:23:28;;;;;;;25.40;22.85;;;-0.90;99.90;;;;;;4219209;28;20046;-86
2022/11/28 03:25:59;;;;;;;19.33;17.65;;;-1.00;99.90;;;;;;4232411;28;20035;-85
2022/11/28 03:28:41;;;;;;;16.00;14.93;;;-1.00;99.90;;;;;;4219485;28;20043;-86
2022/11/28 03:31:18;;;;;;;15.55;14.55;;;-1.10;99.90;;;;;;4232706;28;20048;-86
2022/11/28 03:33:44;;;;;;;15.93;14.80;;;-1.10;99.90;;;;;;4214378;28;20388;-86
2022/11/28 03:36:28;;;;;;;16.48;15.52;;;-1.20;99.90;;;;;;4232593;28;20060;-85
2022/11/28 03:38:53;;;;;;;16.17;15.35;;;-1.20;99.90;;;;;;4230650;28;20369;-86
2022/11/28 03:41:23;;;;;;;13.60;13.07;;;-1.10;99.90;;;;;;4230233;28;20399;-86
2022/11/28 03:43:48;;;;;;;13.02;12.20;;;-1.10;99.90;;;;;;4219309;28;20066;-86
2022/11/28 03:46:12;;;;;;;11.82;11.23;;;-1.10;99.90;;;;;;4227876;28;20369;-86
2022/11/28 03:48:42;;;;;;;13.25;12.57;;;-1.00;99.90;;;;;;4231831;28;20112;-86
2022/11/28 03:51:18;;;;;;;13.48;12.90;;;-1.10;99.90;;;;;;4230821;28;20043;-86
2022/11/28 03:53:47;;;;;;;12.95;12.35;;;-1.20;99.90;;;;;;4230026;28;20038;-86
2022/11/28 03:56:13;;;;;;;14.40;13.52;;;-1.20;99.90;;;;;;4225262;28;20404;-86
2022/11/28 03:58:42;;;;;;;13.80;13.10;;;-1.20;99.90;;;;;;4227342;28;20039;-86
2022/11/28 04:01:26;;;;;;;12.15;11.55;;;-1.10;99.90;;;;;;4229852;28;20055;-87
2022/11/28 04:03:57;;;;;;;8.50;8.30;;;-1.10;99.90;;;;;;4230478;28;20047;-86
2022/11/28 04:06:30;;;;;;;11.65;11.23;;;-1.00;99.90;;;;;;4217239;28;20043;-86
2022/11/28 04:09:15;;;;;;;12.73;12.00;;;-1.00;99.90;;;;;;4216634;28;20461;-86
2022/11/28 04:11:44;;;;;;;13.88;12.65;;;-1.00;99.90;;;;;;4231027;28;20350;-86
2022/11/28 04:14:28;;;;;;;15.85;15.00;;;-1.20;99.90;;;;;;4234091;28;20046;-86
2022/11/28 04:16:55;;;;;;;15.52;14.52;;;-1.30;99.90;;;;;;4220095;28;20112;-86
2022/11/28 04:19:24;;;;;;;14.18;13.38;;;-1.30;99.90;;;;;;4232629;28;20082;-86
2022/11/28 04:21:55;;;;;;;14.80;14.18;;;-1.30;99.90;;;;;;4215365;28;20050;-86
2022/11/28 04:24:19;;;;;;;11.68;11.20;;;-1.40;99.90;;;;;;4232123;28;20039;-86
2022/11/28 04:26:48;;;;;;;14.13;13.32;;;-1.20;99.90;;;;;;4217439;28;20039;-86
2022/11/28 04:29:13;;;;;;;15.60;14.80;;;-1.20;99.90;;;;;;4220868;28;20090;-86
2022/11/28 04:31:35;;;;;;;12.85;12.25;;;-1.20;99.90;;;;;;4216490;28;20048;-86
2022/11/28 04:34:01;;;;;;;13.23;12.65;;;-1.30;99.90;;;;;;4229540;28;20093;-86
2022/11/28 04:36:23;;;;;;;15.05;14.43;;;-1.30;99.90;;;;;;4230454;28;20055;-86
2022/11/28 04:38:53;;;;;;;14.55;13.73;;;-1.40;99.90;;;;;;4232316;28;20066;-86
2022/11/28 04:41:21;;;;;;;13.05;12.45;;;-1.40;99.90;;;;;;4231879;28;20372;-86
2022/11/28 04:43:50;;;;;;;13.77;13.07;;;-1.50;99.90;;;;;;4230536;28;20039;-86
2022/11/28 04:46:26;;;;;;;12.32;11.68;;;-1.50;99.90;;;;;;4231707;28;20043;-86
2022/11/28 04:48:46;;;;;;;13.63;12.85;;;-1.40;99.90;;;;;;4215482;28;20070;-86
2022/11/28 04:51:18;;;;;;;12.43;12.02;;;-1.50;99.90;;;;;;4230498;28;20306;-86
2022/11/28 04:53:53;;;;;;;12.90;12.32;;;-1.60;99.90;;;;;;4229779;28;20094;-86
2022/11/28 04:56:19;;;;;;;12.70;12.20;;;-1.60;99.90;;;;;;4226619;28;20043;-86
2022/11/28 04:58:42;;;;;;;11.07;10.55;;;-1.50;99.90;;;;;;4233523;28;20058;-86
2022/11/28 05:01:06;;;;;;;12.55;12.05;;;-1.50;99.90;;;;;;4217309;28;20243;-86
2022/11/28 05:03:27;;;;;;;13.10;12.60;;;-1.30;99.90;;;;;;4220305;28;20043;-86
2022/11/28 05:05:50;;;;;;;11.00;10.32;;;-1.40;99.90;;;;;;4213074;28;20086;-85
2022/11/28 05:08:10;;;;;;;11.27;10.70;;;-1.30;99.90;;;;;;4220084;28;20325;-86
2022/11/28 05:10:30;;;;;;;12.35;11.88;;;-1.30;99.90;;;;;;4231857;28;20055;-86
2022/11/28 05:12:49;;;;;;;11.65;11.45;;;-1.30;99.90;;;;;;4216053;28;20079;-86
2022/11/28 05:15:10;;;;;;;11.55;10.80;;;-1.30;99.90;;;;;;4229682;28;20054;-86
2022/11/28 05:17:30;;;;;;;8.80;8.50;;;-1.00;99.90;;;;;;4229380;28;20273;-86
2022/11/28 05:19:50;;;;;;;9.90;9.80;;;-1.00;99.90;;;;;;4220887;28;20051;-86
2022/11/28 05:22:09;;;;;;;10.65;10.18;;;-1.00;99.90;;;;;;4230960;28;20087;-86
2022/11/28 05:24:29;;;;;;;10.75;10.55;;;-1.00;99.90;;;;;;4228458;28;20186;-86
2022/11/28 05:26:51;;;;;;;15.77;14.73;;;-1.00;99.90;;;;;;4217740;28;20425;-86
2022/11/28 05:29:11;;;;;;;17.20;15.82;;;-1.10;99.90;;;;;;4214762;28;20051;-86
2022/11/28 05:31:31;;;;;;;13.70;12.43;;;-1.30;99.90;;;;;;4217564;28;20263;-86
2022/11/28 05:33:50;;;;;;;16.30;14.70;;;-1.20;99.90;;;;;;4216941;28;20054;-86
2022/11/28 05:36:13;;;;;;;12.40;11.63;;;-1.10;99.90;;;;;;4230831;28;20254;-86
2022/11/28 05:38:33;;;;;;;14.70;13.70;;;-1.20;99.90;;;;;;4219420;28;20081;-86
2022/11/28 05:40:58;;;;;;;12.98;12.27;;;-1.20;99.90;;;;;;4231436;28;20047;-86
2022/11/28 05:43:19;;;;;;;16.42;15.52;;;-1.30;99.90;;;;;;4223847;28;20051;-86
2022/11/28 05:45:42;;;;;;;32.53;31.05;;;-1.40;99.90;;;;;;4217584;28;20051;-86
2022/11/28 05:48:02;;;;;;;37.70;35.92;;;-1.50;99.90;;;;;;4230956;28;20042;-86
2022/11/28 05:50:22;;;;;;;34.33;32.90;;;-1.50;99.90;;;;;;4214148;28;20055;-86
2022/11/28 05:52:42;;;;;;;32.83;31.40;;;-1.60;99.90;;;;;;4219162;28;20047;-86
2022/11/28 05:55:01;;;;;;;35.08;33.45;;;-1.60;99.90;;;;;;4215145;28;20047;-86
2022/11/28 05:57:21;;;;;;;37.08;35.35;;;-1.60;99.90;;;;;;4216585;28;20080;-86
2022/11/28 05:59:41;;;;;;;36.05;34.58;;;-1.60;99.90;;;;;;4231661;28;20058;-86
2022/11/28 06:02:01;;;;;;;34.60;32.95;;;-1.50;99.90;;;;;;4228401;28;20154;-86
2022/11/28 06:04:21;;;;;;;31.98;30.77;;;-1.40;99.90;;;;;;4214582;28;20059;-86
2022/11/28 06:06:41;;;;;;;34.40;32.88;;;-1.40;99.90;;;;;;4230903;28;20069;-86
2022/11/28 06:09:02;;;;;;;30.20;28.75;;;-1.40;99.90;;;;;;4230698;28;20257;-86
2022/11/28 06:11:24;;;;;;;31.92;30.42;;;-1.40;99.90;;;;;;4217916;28;20098;-85
2022/11/28 06:13:45;;;;;;;33.20;31.50;;;-1.30;99.90;;;;;;4230176;28;20035;-86
2022/11/28 06:16:13;;;;;;;27.55;25.90;;;-1.30;99.90;;;;;;4230805;28;20069;-86
2022/11/28 06:18:33;;;;;;;19.88;18.95;;;-1.30;99.90;;;;;;4229729;28;20058;-87
2022/11/28 06:20:54;;;;;;;15.95;14.77;;;-1.20;99.90;;;;;;4230555;28;20089;-87
2022/11/28 06:23:13;;;;;;;11.73;11.00;;;-1.10;99.90;;;;;;4215985;28;20369;-87
2022/11/28 06:25:33;;;;;;;14.95;14.35;;;-1.10;99.90;;;;;;4217122;28;20393;-87
2022/11/28 06:27:53;;;;;;;13.15;12.23;;;-1.00;99.90;;;;;;4230114;28;20449;-87
2022/11/28 06:30:13;;;;;;;15.85;13.70;;;-1.00;99.90;;;;;;4222709;28;20062;-88
2022/11/28 06:32:34;;;;;;;13.73;12.73;;;-0.90;99.90;;;;;;4222427;28;20245;-89
2022/11/28 06:34:54;;;;;;;11.48;10.60;;;-0.90;99.90;;;;;;4232209;28;20051;-88
2022/11/28 06:37:14;;;;;;;10.02;9.65;;;-0.70;99.90;;;;;;4215197;28;20047;-88
2022/11/28 06:39:34;;;;;;;10.57;10.02;;;-0.60;99.90;;;;;;4227468;28;20055;-87
2022/11/28 06:41:54;;;;;;;10.25;9.75;;;-0.60;99.90;;;;;;4211167;28;20056;-88
2022/11/28 06:44:15;;;;;;;9.32;8.80;;;-0.70;99.90;;;;;;4231105;28;20235;-88
2022/11/28 06:46:35;;;;;;;9.85;9.48;;;-0.60;99.90;;;;;;4216819;28;20051;-88
2022/11/28 06:48:55;;;;;;;10.48;10.02;;;-0.60;99.90;;;;;;4228871;28;20081;-88
2022/11/28 06:51:16;;;;;;;8.95;8.68;;;-0.60;99.90;;;;;;4226565;28;20066;-88
2022/11/28 06:53:36;;;;;;;9.15;8.75;;;-0.50;99.90;;;;;;4229732;28;20132;-88
2022/11/28 06:55:56;;;;;;;10.15;9.68;;;-0.50;99.90;;;;;;4232884;28;20055;-88
2022/11/28 06:58:15;;;;;;;10.15;9.55;;;-0.50;99.90;;;;;;4230481;28;20059;-88
2022/11/28 07:00:36;;;;;;;13.70;12.65;;;-0.40;99.90;;;;;;4224293;28;20281;-87
2022/11/28 07:02:56;;;;;;;18.15;16.20;;;-0.40;99.90;;;;;;4227890;28;20050;-88
2022/11/28 07:05:18;;;;;;;17.15;15.77;;;-0.40;99.90;;;;;;4211486;28;20047;-88
2022/11/28 07:07:37;;;;;;;18.17;16.55;;;-0.40;99.90;;;;;;4226943;28;20069;-88
2022/11/28 07:10:13;;;;;;;20.00;17.98;;;-0.40;99.90;;;;;;4219785;28;20226;-88
2022/11/28 07:12:33;;;;;;;19.00;17.02;;;-0.40;99.90;;;;;;4231521;28;20087;-87
2022/11/28 07:14:53;;;;;;;16.60;15.07;;;-0.30;99.90;;;;;;4228017;28;20058;-88
2022/11/28 07:17:13;;;;;;;16.27;14.85;;;-0.20;99.90;;;;;;4227815;28;20055;-88
2022/11/28 07:19:33;;;;;;;15.32;14.10;;;-0.20;99.90;;;;;;4215523;28;20067;-88
2022/11/28 07:21:53;;;;;;;12.30;11.63;;;-0.20;99.90;;;;;;4230349;28;20054;-88
2022/11/28 07:24:13;;;;;;;13.38;12.48;;;-0.20;99.90;;;;;;4214988;28;20067;-88
2022/11/28 07:26:36;;;;;;;15.25;13.85;;;-0.20;99.90;;;;;;4215463;28;20098;-88
2022/11/28 07:28:58;;;;;;;18.27;16.58;;;-0.20;99.90;;;;;;4230826;28;20042;-88
2022/11/28 07:31:24;;;;;;;15.15;14.20;;;-0.20;99.90;;;;;;4217257;28;20055;-88
2022/11/28 07:33:45;;;;;;;13.20;12.40;;;-0.20;99.90;;;;;;4232022;28;20361;-87
2022/11/28 07:36:10;;;;;;;15.63;14.40;;;-0.20;99.90;;;;;;4228970;28;20047;-89
2022/11/28 07:38:30;;;;;;;15.02;13.93;;;-0.10;99.90;;;;;;4228466;28;20077;-89
2022/11/28 07:40:50;;;;;;;15.13;14.10;;;-0.10;99.90;;;;;;4226712;28;20046;-88
2022/11/28 07:43:10;;;;;;;13.50;12.80;;;-0.20;99.90;;;;;;4228951;28;20308;-88
2022/11/28 07:45:30;;;;;;;11.10;10.60;;;-0.20;99.90;;;;;;4229233;28;20137;-87
2022/11/28 07:48:10;;;;;;;9.18;8.95;;;-0.10;99.90;;;;;;4224087;28;20043;-87
2022/11/28 07:50:30;;;;;;;10.95;10.20;;;-0.10;99.90;;;;;;4230968;28;20403;-87
2022/11/28 07:52:50;;;;;;;11.50;10.95;;;-0.10;99.90;;;;;;4230238;28;20050;-87
2022/11/28 07:55:10;;;;;;;13.40;12.30;;;-0.10;99.90;;;;;;4223720;28;20065;-87
2022/11/28 07:57:30;;;;;;;15.35;14.13;;;0.00;99.90;;;;;;4218382;28;20051;-87
2022/11/28 07:59:50;;;;;;;13.25;12.63;;;0.10;99.90;;;;;;4232428;28;20050;-87
2022/11/28 08:02:10;;;;;;;17.20;15.70;;;0.10;99.90;;;;;;4232146;28;20111;-87
2022/11/28 08:04:30;;;;;;;17.13;15.93;;;0.10;99.90;;;;;;4235117;28;20054;-87
2022/11/28 08:06:50;;;;;;;18.90;17.45;;;0.20;99.90;;;;;;4232077;28;20043;-87
2022/11/28 08:09:10;;;;;;;16.67;15.75;;;0.30;99.90;;;;;;4230912;28;20131;-87
2022/11/28 08:11:31;;;;;;;16.77;15.50;;;0.30;99.90;;;;;;4232675;28;20366;-87
2022/11/28 08:13:51;;;;;;;21.63;19.58;;;0.40;99.90;;;;;;4220247;28;20043;-87
2022/11/28 08:16:23;;;;;;;19.63;18.20;;;0.50;99.90;;;;;;4219042;28;20040;-87
2022/11/28 08:18:44;;;;;;;15.88;14.63;;;0.60;99.90;;;;;;4231029;28;20046;-87
2022/11/28 08:21:15;;;;;;;28.10;19.75;;;0.60;99.90;;;;;;4230364;28;20101;-87
2022/11/28 08:23:35;;;;;;;18.58;16.92;;;0.60;99.90;;;;;;4225081;28;20074;-87
2022/11/28 08:25:55;;;;;;;16.95;15.80;;;0.40;99.90;;;;;;4229700;28;20086;-87
2022/11/28 08:28:15;;;;;;;13.73;12.65;;;0.50;99.90;;;;;;4220418;28;20047;-87
2022/11/28 08:30:36;;;;;;;12.13;11.63;;;0.60;99.90;;;;;;4234631;28;20285;-87
2022/11/28 08:32:56;;;;;;;11.55;11.25;;;0.60;99.90;;;;;;4228065;28;20074;-87
2022/11/28 08:35:16;;;;;;;12.55;11.85;;;0.70;99.90;;;;;;4231229;28;20046;-87
2022/11/28 08:37:36;;;;;;;10.15;9.75;;;0.80;99.90;;;;;;4232003;28;20039;-86
2022/11/28 08:39:56;;;;;;;9.85;9.07;;;0.90;99.90;;;;;;4229218;28;20047;-87
2022/11/28 08:42:17;;;;;;;10.23;10.02;;;1.10;99.90;;;;;;4220309;28;20055;-87
2022/11/28 08:44:37;;;;;;;10.43;9.65;;;1.20;99.90;;;;;;4215255;28;20424;-87
2022/11/28 08:46:56;;;;;;;17.20;15.88;;;1.30;99.90;;;;;;4232006;28;20063;-87
2022/11/28 08:49:16;;;;;;;20.23;18.30;;;1.40;99.90;;;;;;4231979;28;20078;-87
2022/11/28 08:51:36;;;;;;;20.73;18.80;;;1.50;99.90;;;;;;4216610;28;20051;-87
2022/11/28 08:53:56;;;;;;;19.50;17.92;;;1.50;99.90;;;;;;4218471;28;20206;-87
2022/11/28 08:56:19;;;;;;;24.17;21.60;;;1.50;99.90;;;;;;4221292;28;20142;-87
2022/11/28 08:58:39;;;;;;;27.35;22.38;;;1.60;99.90;;;;;;4235080;28;20076;-87
2022/11/28 09:00:58;;;;;;;32.65;23.92;;;1.70;99.90;;;;;;4216871;28;20333;-85
2022/11/28 09:03:19;;;;;;;23.77;20.77;;;1.80;99.90;;;;;;4231458;28;20051;-85
2022/11/28 09:05:39;;;;;;;21.33;19.08;;;1.80;99.90;;;;;;4231326;28;20081;-86
2022/11/28 09:07:58;;;;;;;20.35;18.42;;;1.90;99.90;;;;;;4232429;28;20050;-86
2022/11/28 09:10:18;;;;;;;19.95;18.20;;;1.90;99.90;;;;;;4229987;28;20093;-85
2022/11/28 09:12:38;;;;;;;17.77;16.30;;;2.00;99.90;;;;;;4232643;28;20068;-86
2022/11/28 09:14:58;;;;;;;14.75;13.75;;;2.10;99.90;;;;;;4230992;28;20296;-86
2022/11/28 09:17:17;;;;;;;20.02;18.00;;;2.10;99.90;;;;;;4232245;28;20141;-86
2022/11/28 09:19:37;;;;;;;13.75;12.80;;;2.20;99.90;;;;;;4232072;28;20086;-86
2022/11/28 09:21:57;;;;;;;10.88;9.93;;;2.20;99.90;;;;;;4219171;28;20089;-85
2022/11/28 09:24:17;;;;;;;12.63;11.70;;;2.20;99.90;;;;;;4232897;28;20039;-86
2022/11/28 09:26:37;;;;;;;9.68;9.13;;;2.30;99.90;;;;;;4231188;28;20082;-86
2022/11/28 09:28:57;;;;;;;8.88;8.30;;;2.40;99.90;;;;;;4230514;28;20053;-86
2022/11/28 09:31:19;;;;;;;10.43;10.02;;;2.40;99.90;;;;;;4219950;28;20044;-86
2022/11/28 09:33:39;;;;;;;19.60;17.70;;;2.50;99.90;;;;;;4229811;28;20034;-86
2022/11/28 09:36:04;;;;;;;13.07;12.32;;;2.60;99.90;;;;;;4233718;28;20047;-86
2022/11/28 09:38:24;;;;;;;9.55;8.73;;;2.70;99.90;;;;;;4214878;28;20251;-86
2022/11/28 09:40:44;;;;;;;7.40;7.20;;;2.80;99.90;;;;;;4230264;28;20093;-86
2022/11/28 09:43:14;;;;;;;14.50;13.05;;;2.90;99.90;;;;;;4229984;28;20085;-85
2022/11/28 09:45:34;;;;;;;8.98;8.57;;;3.10;99.90;;;;;;4232726;28;20070;-85
2022/11/28 09:48:00;;;;;;;17.05;15.32;;;3.00;99.90;;;;;;4235348;28;20035;-86
2022/11/28 09:50:24;;;;;;;10.55;10.23;;;3.10;99.90;;;;;;4231997;28;20272;-86
2022/11/28 09:53:12;;;;;;;8.25;8.13;;;3.10;99.90;;;;;;4229951;28;20108;-86
2022/11/28 09:55:40;;;;;;;12.73;11.85;;;3.00;99.90;;;;;;4232233;28;20047;-86
2022/11/28 09:58:10;;;;;;;10.73;10.32;;;3.00;99.90;;;;;;4216915;28;20056;-86
2022/11/28 10:00:46;;;;;;;12.10;11.60;;;3.00;99.90;;;;;;4215277;28;20287;-86
2022/11/28 10:03:16;;;;;;;9.50;9.10;;;3.00;99.90;;;;;;4215651;28;20069;-87
2022/11/28 10:06:02;;;;;;;7.38;7.18;;;3.10;99.90;;;;;;4229671;28;20377;-86
2022/11/28 10:08:45;;;;;;;7.38;7.13;;;3.10;99.90;;;;;;4189286;28;20254;-86
2022/11/28 10:11:44;;;;;;;8.70;8.27;;;3.20;99.90;;;;;;4214786;28;20081;-86
2022/11/28 10:14:12;;;;;;;9.25;9.00;;;3.30;99.90;;;;;;4231785;28;20039;-86
2022/11/28 10:16:56;;;;;;;9.20;8.90;;;3.30;99.90;;;;;;4226158;28;20055;-86
2022/11/28 10:19:23;;;;;;;16.85;15.32;;;3.40;99.90;;;;;;4232767;28;20046;-85
2022/11/28 10:22:10;;;;;;;14.75;13.65;;;3.50;99.90;;;;;;4230401;28;20058;-85
2022/11/28 10:24:40;;;;;;;8.52;8.35;;;3.50;99.90;;;;;;4229924;28;20050;-85
2022/11/28 10:27:03;;;;;;;9.10;8.32;;;3.60;99.90;;;;;;4228674;28;20397;-85
2022/11/28 10:29:32;;;;;;;7.88;7.38;;;3.60;99.90;;;;;;4229829;28;20065;-85
2022/11/28 10:31:56;;;;;;;10.73;10.32;;;3.70;99.90;;;;;;4228869;28;20047;-86
2022/11/28 10:34:19;;;;;;;13.27;12.57;;;3.70;99.90;;;;;;4231634;28;20046;-86
2022/11/28 10:36:45;;;;;;;;;;;3.70;99.90;;;;;;4221515;28;20484;-86
2022/11/28 10:39:13;;;;;;;6.70;6.45;;;3.90;99.90;;;;;;4231308;28;19931;-85
2022/11/28 10:42:13;;;;;;;7.00;6.90;;;4.00;99.90;;;;;;4222444;28;20090;-86
2022/11/28 10:44:45;;;;;;;21.85;6.85;;;4.10;99.90;;;;;;4230094;28;20046;-85
2022/11/28 10:47:27;;;;;;;8.52;7.93;;;4.10;99.90;;;;;;4231115;28;20081;-85
2022/11/28 10:50:05;;;;;;;5.30;5.10;;;4.20;99.90;;;;;;4228705;28;20077;-85
2022/11/28 10:52:36;;;;;;;5.75;5.57;;;4.40;99.90;;;;;;4227973;28;20054;-85
2022/11/28 10:55:21;;;;;;;6.60;6.38;;;4.50;99.90;;;;;;4232058;28;20107;-85
2022/11/28 10:58:20;;;;;;;6.05;5.85;;;4.70;99.90;;;;;;4229544;28;20231;-85
2022/11/28 11:00:44;;;;;;;6.72;6.45;;;4.70;99.90;;;;;;4161731;28;20072;-85
2022/11/28 11:03:04;;;;;;;11.95;8.75;;;4.80;99.90;;;;;;4152585;28;20053;-85
2022/11/28 11:05:30;;;;;;;7.35;7.15;;;5.00;99.90;;;;;;4161776;28;20391;-85
2022/11/28 11:08:01;;;;;;;6.72;6.50;;;5.10;99.90;;;;;;4161591;28;20061;-86
2022/11/28 11:10:24;;;;;;;7.38;7.18;;;5.10;99.90;;;;;;4162622;28;20106;-86
2022/11/28 11:12:45;;;;;;;8.07;7.72;;;5.10;99.90;;;;;;4163954;28;20131;-86
2022/11/28 11:15:18;;;;;;;10.05;9.48;;;5.20;99.90;;;;;;4161595;28;20273;-86
2022/11/28 11:17:37;;;;;;;12.95;11.98;;;5.30;99.90;;;;;;4162202;28;20055;-85
2022/11/28 11:19:57;;;;;;;13.18;11.85;;;5.40;99.90;;;;;;4160736;28;20121;-86
2022/11/28 11:22:20;;;;;;;11.73;11.18;;;5.40;99.90;;;;;;4162591;28;20428;-86
2022/11/28 11:24:41;;;;;;;10.23;9.70;;;5.40;99.90;;;;;;4164210;28;20169;-86
2022/11/28 11:27:12;;;;;;;16.50;14.73;;;5.40;99.90;;;;;;4158680;28;20080;-86
2022/11/28 11:29:36;;;;;;;14.70;13.20;;;5.40;99.90;;;;;;4162786;28;20093;-85
2022/11/28 11:32:02;;;;;;;13.75;12.60;;;5.40;99.90;;;;;;4162039;28;20053;-86
2022/11/28 11:34:23;;;;;;;12.05;11.20;;;5.50;99.90;;;;;;4157200;28;20138;-85
2022/11/28 11:36:43;;;;;;;9.27;8.77;;;5.50;99.90;;;;;;4171523;28;20096;-86
2022/11/28 11:39:15;;;;;;;12.88;11.90;;;5.50;99.90;;;;;;4233627;28;20075;-85
2022/11/28 11:41:37;;;;;;;8.50;7.97;;;5.60;99.90;;;;;;4237337;28;20088;-85
2022/11/28 11:44:33;;;;;;;7.60;7.40;;;5.50;99.90;;;;;;4235224;28;20051;-86
2022/11/28 11:46:55;;;;;;;6.57;6.03;;;5.60;99.90;;;;;;4228255;28;20111;-86
2022/11/28 11:49:46;;;;;;;7.65;7.20;;;5.60;99.90;;;;;;4219674;28;20055;-86
2022/11/28 11:52:21;;;;;;;8.27;7.20;;;5.70;99.90;;;;;;4220176;28;20243;-86
2022/11/28 11:55:02;;;;;;;8.15;7.78;;;5.80;99.90;;;;;;4232888;28;20279;-85
2022/11/28 11:57:26;;;;;;;8.82;8.43;;;5.90;99.90;;;;;;4229519;28;20080;-85
2022/11/28 11:59:59;;;;;;;7.75;7.30;;;6.00;99.90;;;;;;4231967;28;20065;-85
2022/11/28 12:02:29;;;;;;;11.70;10.77;;;6.10;99.90;;;;;;4231427;28;20767;-85
2022/11/28 12:04:58;;;;;;;11.30;8.90;;;6.10;99.90;;;;;;4229128;28;20035;-85
2022/11/28 12:07:30;;;;;;;8.80;8.13;;;6.30;99.90;;;;;;4216770;28;20054;-85
2022/11/28 12:09:52;;;;;;;6.90;6.55;;;6.30;99.90;;;;;;4231114;28;20050;-85
2022/11/28 12:12:24;;;;;;;7.28;7.07;;;6.30;99.90;;;;;;4230152;28;20086;-85
2022/11/28 12:14:46;;;;;;;8.23;7.88;;;6.40;99.90;;;;;;4230457;28;20035;-85
2022/11/28 12:17:19;;;;;;;8.20;7.80;;;6.50;99.90;;;;;;4215492;28;20090;-85
2022/11/28 12:20:21;;;;;;;6.68;6.47;;;6.40;99.90;;;;;;4235884;28;20074;-85
2022/11/28 12:22:58;;;;;;;6.40;6.13;;;6.40;99.90;;;;;;4216432;28;20051;-85
2022/11/28 12:25:31;;;;;;;7.85;7.45;;;6.50;99.90;;;;;;4226569;28;20054;-85
2022/11/28 12:28:03;;;;;;;11.52;10.68;;;6.50;99.90;;;;;;4228931;28;20074;-85